createdAt,value
2017-02-27T00:00:34.082Z,4.28
2017-02-27T00:01:34.916Z,3.77
2017-02-27T00:02:34.474Z,3.97
2017-02-27T00:03:34.634Z,3.87
2017-02-27T00:04:33.532Z,4.33
2017-02-27T00:05:35.556Z,4.45
2017-02-27T00:06:35.938Z,3.95
2017-02-27T00:07:39.443Z,3.77
2017-02-27T00:08:38.552Z,4.35
2017-02-27T00:09:39.584Z,3.90
2017-02-27T00:10:39.423Z,3.83
2017-02-27T00:11:38.990Z,3.67
2017-02-27T00:12:40.962Z,3.95
2017-02-27T00:13:43.116Z,3.72
2017-02-27T00:14:41.987Z,3.88
2017-02-27T00:15:40.827Z,4.28
2017-02-27T00:16:40.030Z,4.38
2017-02-27T00:17:39.336Z,4.88
2017-02-27T00:18:38.999Z,4.37
2017-02-27T00:19:39.864Z,3.90
2017-02-27T00:20:41.038Z,4.45
2017-02-27T00:21:44.106Z,4.50
2017-02-27T00:22:43.221Z,4.03
2017-02-27T00:23:42.802Z,4.67
2017-02-27T00:24:41.503Z,5.30
2017-02-27T00:25:40.352Z,4.98
2017-02-27T00:26:39.731Z,3.98
2017-02-27T00:27:40.390Z,4.65
2017-02-27T00:28:39.487Z,5.12
2017-02-27T00:29:38.331Z,4.68
2017-02-27T00:30:37.636Z,5.18
2017-02-27T00:31:36.522Z,4.95
2017-02-27T00:32:35.473Z,4.47
2017-02-27T00:33:35.172Z,4.77
2017-02-27T00:34:33.948Z,4.65
2017-02-27T00:35:32.640Z,6.03
2017-02-27T00:36:31.537Z,4.83
2017-02-27T00:37:32.637Z,5.15
2017-02-27T00:38:32.049Z,5.48
2017-02-27T00:39:31.718Z,5.58
2017-02-27T00:40:32.594Z,4.85
2017-02-27T00:41:31.503Z,4.90
2017-02-27T00:42:32.212Z,5.05
2017-02-27T00:43:32.230Z,5.32
2017-02-27T00:44:33.647Z,5.58
2017-02-27T00:45:32.986Z,4.77
2017-02-27T00:46:36.922Z,5.43
2017-02-27T00:47:40.764Z,5.05
2017-02-27T00:48:42.514Z,5.92
2017-02-27T00:49:43.538Z,4.73
2017-02-27T00:50:42.255Z,4.60
2017-02-27T00:51:40.966Z,5.88
2017-02-27T00:52:39.712Z,4.98
2017-02-27T00:53:38.755Z,5.98
2017-02-27T00:54:39.192Z,4.75
2017-02-27T00:55:39.072Z,5.23
2017-02-27T00:56:40.242Z,5.43
2017-02-27T00:57:39.332Z,5.70
2017-02-27T00:58:40.939Z,6.15
2017-02-27T00:59:40.334Z,5.30
2017-02-27T01:00:39.655Z,5.50
2017-02-27T01:01:41.401Z,5.30
2017-02-27T01:02:43.098Z,5.08
2017-02-27T01:03:41.852Z,5.62
2017-02-27T01:04:43.926Z,5.50
2017-02-27T01:05:43.140Z,5.13
2017-02-27T01:06:44.019Z,5.07
2017-02-27T01:07:42.707Z,5.07
2017-02-27T01:08:41.320Z,5.55
2017-02-27T01:09:39.944Z,5.05
2017-02-27T01:10:38.640Z,5.42
2017-02-27T01:11:37.514Z,5.90
2017-02-27T01:12:36.116Z,6.08
2017-02-27T01:13:34.732Z,6.63
2017-02-27T01:14:33.331Z,5.10
2017-02-27T01:15:31.969Z,5.03
2017-02-27T01:16:30.589Z,4.48
2017-02-27T01:17:29.578Z,5.83
2017-02-27T01:18:28.146Z,5.17
2017-02-27T01:19:27.142Z,5.50
2017-02-27T01:20:25.774Z,5.25
2017-02-27T01:21:24.355Z,5.55
2017-02-27T01:22:23.082Z,5.83
2017-02-27T01:23:22.081Z,6.05
2017-02-27T01:24:21.070Z,5.48
2017-02-27T01:25:20.609Z,5.18
2017-02-27T01:26:19.229Z,5.70
2017-02-27T01:27:17.816Z,4.87
2017-02-27T01:28:16.414Z,4.68
2017-02-27T01:29:15.535Z,4.92
2017-02-27T01:30:14.175Z,5.02
2017-02-27T01:31:12.790Z,5.28
2017-02-27T01:32:11.459Z,4.63
2017-02-27T01:33:10.408Z,4.53
2017-02-27T01:34:08.990Z,4.90
2017-02-27T01:35:07.999Z,4.75
2017-02-27T01:37:14.310Z,5.02
2017-02-27T01:38:16.936Z,5.27
2017-02-27T01:41:27.311Z,5.07
2017-02-27T01:47:07.888Z,5.15
2017-02-27T01:49:17.721Z,4.98
2017-02-27T01:52:58.669Z,5.75
2017-02-27T01:53:57.636Z,4.65
2017-02-27T01:54:56.259Z,5.12
2017-02-27T01:55:55.701Z,4.70
2017-02-27T01:56:55.183Z,4.68
2017-02-27T01:57:56.662Z,4.85
2017-02-27T01:58:58.033Z,4.52
2017-02-27T01:59:56.904Z,4.17
2017-02-27T02:00:56.290Z,3.90
2017-02-27T02:01:55.110Z,4.62
2017-02-27T02:02:54.345Z,5.12
2017-02-27T02:03:55.402Z,4.55
2017-02-27T02:04:58.632Z,4.73
2017-02-27T02:06:01.461Z,4.78
2017-02-27T02:07:00.502Z,4.55
2017-02-27T02:07:59.921Z,4.48
2017-02-27T02:08:58.947Z,4.85
2017-02-27T02:09:57.696Z,4.40
2017-02-27T02:10:57.371Z,4.67
2017-02-27T02:11:56.562Z,4.60
2017-02-27T02:12:56.852Z,4.35
2017-02-27T02:13:57.632Z,4.63
2017-02-27T02:14:57.155Z,4.38
2017-02-27T02:15:56.915Z,5.10
2017-02-27T02:16:58.295Z,3.82
2017-02-27T02:18:00.934Z,4.67
2017-02-27T02:19:03.776Z,4.73
2017-02-27T02:20:02.478Z,5.02
2017-02-27T02:21:01.728Z,5.05
2017-02-27T02:22:01.270Z,4.48
2017-02-27T02:23:00.290Z,4.88
2017-02-27T02:24:00.506Z,4.70
2017-02-27T02:24:59.714Z,5.60
2017-02-27T02:25:59.083Z,4.77
2017-02-27T02:26:59.131Z,5.30
2017-02-27T02:27:58.274Z,4.62
2017-02-27T02:28:57.574Z,4.52
2017-02-27T02:29:57.375Z,4.60
2017-02-27T02:30:57.140Z,4.73
2017-02-27T02:31:56.679Z,5.05
2017-02-27T02:32:56.808Z,5.05
2017-02-27T02:33:55.612Z,5.63
2017-02-27T02:34:54.813Z,4.93
2017-02-27T02:35:54.474Z,4.23
2017-02-27T02:36:54.834Z,5.25
2017-02-27T02:37:54.838Z,5.17
2017-02-27T02:38:53.938Z,4.90
2017-02-27T02:39:54.376Z,5.17
2017-02-27T02:40:54.700Z,5.77
2017-02-27T02:41:54.595Z,4.78
2017-02-27T02:42:54.300Z,5.42
2017-02-27T02:43:53.721Z,4.78
2017-02-27T02:44:55.037Z,4.95
2017-02-27T02:45:54.450Z,4.90
2017-02-27T02:46:56.213Z,4.52
2017-02-27T02:47:56.244Z,4.82
2017-02-27T02:48:59.341Z,4.73
2017-02-27T02:49:57.950Z,4.53
2017-02-27T02:50:56.673Z,5.38
2017-02-27T02:51:56.613Z,4.83
2017-02-27T02:52:55.223Z,4.55
2017-02-27T02:53:56.271Z,5.60
2017-02-27T02:54:56.091Z,4.87
2017-02-27T02:55:56.760Z,4.95
2017-02-27T02:56:55.711Z,5.17
2017-02-27T02:57:54.322Z,5.28
2017-02-27T02:58:53.871Z,5.77
2017-02-27T02:59:56.027Z,4.83
2017-02-27T03:00:54.983Z,5.35
2017-02-27T03:01:54.975Z,4.72
2017-02-27T03:02:55.106Z,6.22
2017-02-27T03:03:55.321Z,4.83
2017-02-27T03:04:56.151Z,5.90
2017-02-27T03:05:56.043Z,4.97
2017-02-27T03:06:58.376Z,4.97
2017-02-27T03:07:59.190Z,5.62
2017-02-27T03:08:58.628Z,5.52
2017-02-27T03:09:58.115Z,5.62
2017-02-27T03:10:59.879Z,5.00
2017-02-27T03:11:58.536Z,5.60
2017-02-27T03:12:59.180Z,5.02
2017-02-27T03:13:59.234Z,4.82
2017-02-27T03:14:57.960Z,5.28
2017-02-27T03:15:56.644Z,5.30
2017-02-27T03:16:57.336Z,4.92
2017-02-27T03:17:56.581Z,5.30
2017-02-27T03:18:55.964Z,5.57
2017-02-27T03:19:55.998Z,5.78
2017-02-27T03:20:55.167Z,4.67
2017-02-27T03:21:55.412Z,5.03
2017-02-27T03:22:55.195Z,5.37
2017-02-27T03:23:54.493Z,5.57
2017-02-27T03:24:54.481Z,5.65
2017-02-27T03:25:56.435Z,5.57
2017-02-27T03:26:55.790Z,4.93
2017-02-27T03:27:55.399Z,5.18
2017-02-27T03:28:53.968Z,4.85
2017-02-27T03:29:57.275Z,5.23
2017-02-27T03:30:57.854Z,5.07
2017-02-27T03:31:59.968Z,5.38
2017-02-27T03:32:59.069Z,4.97
2017-02-27T03:33:58.380Z,5.33
2017-02-27T03:34:58.588Z,4.48
2017-02-27T03:35:57.666Z,4.60
2017-02-27T03:36:57.596Z,5.08
2017-02-27T03:37:56.966Z,5.98
2017-02-27T03:38:59.529Z,3.98
2017-02-27T03:39:59.737Z,5.13
2017-02-27T03:41:00.077Z,4.70
2017-02-27T03:42:00.319Z,5.07
2017-02-27T03:42:58.890Z,4.47
2017-02-27T03:43:58.596Z,5.58
2017-02-27T03:44:58.109Z,4.85
2017-02-27T03:45:59.060Z,4.27
2017-02-27T03:46:58.983Z,4.73
2017-02-27T03:48:02.517Z,4.18
2017-02-27T03:49:03.275Z,4.52
2017-02-27T03:50:02.970Z,3.87
2017-02-27T03:51:01.924Z,4.78
2017-02-27T03:52:00.543Z,4.47
2017-02-27T03:53:00.615Z,4.62
2017-02-27T03:54:01.298Z,4.37
2017-02-27T03:55:00.782Z,4.20
2017-02-27T03:55:59.976Z,3.70
2017-02-27T03:56:59.470Z,3.97
2017-02-27T03:57:59.210Z,4.03
2017-02-27T03:58:59.856Z,4.67
2017-02-27T03:59:58.625Z,4.13
2017-02-27T04:00:59.174Z,4.13
2017-02-27T04:01:59.467Z,4.70
2017-02-27T04:02:59.719Z,3.57
2017-02-27T04:03:58.534Z,3.87
2017-02-27T04:04:58.530Z,3.87
2017-02-27T04:05:57.536Z,4.50
2017-02-27T04:06:57.243Z,3.58
2017-02-27T04:07:56.971Z,4.60
2017-02-27T04:08:56.688Z,4.30
2017-02-27T04:09:56.139Z,3.67
2017-02-27T04:10:54.862Z,3.85
2017-02-27T04:11:56.014Z,4.30
2017-02-27T04:12:56.804Z,4.37
2017-02-27T04:14:00.011Z,3.98
2017-02-27T04:15:00.031Z,3.80
2017-02-27T04:16:00.077Z,4.63
2017-02-27T04:16:59.890Z,3.53
2017-02-27T04:18:01.841Z,4.80
2017-02-27T04:19:02.043Z,3.83
2017-02-27T04:20:01.770Z,3.98
2017-02-27T04:21:01.515Z,3.32
2017-02-27T04:22:01.581Z,3.78
2017-02-27T04:23:00.340Z,4.48
2017-02-27T04:24:00.515Z,4.12
2017-02-27T04:25:02.673Z,3.83
2017-02-27T04:26:01.813Z,3.63
2017-02-27T04:27:01.696Z,3.97
2017-02-27T04:28:00.640Z,3.87
2017-02-27T04:29:00.189Z,3.45
2017-02-27T04:29:59.672Z,4.18
2017-02-27T04:30:59.262Z,3.52
2017-02-27T04:31:58.993Z,3.57
2017-02-27T04:32:58.550Z,3.87
2017-02-27T04:33:58.401Z,4.33
2017-02-27T04:34:59.191Z,4.02
2017-02-27T04:36:00.036Z,4.25
2017-02-27T04:36:59.434Z,4.47
2017-02-27T04:37:59.058Z,3.87
2017-02-27T04:38:58.155Z,4.75
2017-02-27T04:40:00.474Z,4.70
2017-02-27T04:41:00.111Z,4.43
2017-02-27T04:42:00.150Z,4.62
2017-02-27T04:42:59.021Z,4.80
2017-02-27T04:43:59.251Z,4.85
2017-02-27T04:44:58.399Z,4.92
2017-02-27T04:45:59.405Z,5.08
2017-02-27T04:46:59.052Z,4.80
2017-02-27T04:47:58.829Z,4.73
2017-02-27T04:48:57.947Z,4.53
2017-02-27T04:49:58.843Z,5.23
2017-02-27T04:50:59.105Z,4.92
2017-02-27T04:51:58.639Z,5.15
2017-02-27T04:52:57.937Z,5.12
2017-02-27T04:53:57.267Z,5.32
2017-02-27T04:54:57.231Z,5.80
2017-02-27T04:55:56.956Z,5.20
2017-02-27T04:56:58.165Z,5.03
2017-02-27T04:57:57.687Z,5.23
2017-02-27T04:58:58.216Z,5.35
2017-02-27T04:59:56.914Z,5.22
2017-02-27T05:00:56.291Z,5.33
2017-02-27T05:01:55.243Z,4.60
2017-02-27T05:02:54.826Z,4.62
2017-02-27T05:03:54.976Z,4.65
2017-02-27T05:04:56.792Z,5.23
2017-02-27T05:05:57.395Z,5.07
2017-02-27T05:06:56.290Z,5.68
2017-02-27T05:07:56.641Z,5.62
2017-02-27T05:08:56.876Z,5.73
2017-02-27T05:09:55.837Z,5.08
2017-02-27T05:10:56.669Z,5.40
2017-02-27T05:11:55.706Z,5.45
2017-02-27T05:12:59.367Z,6.07
2017-02-27T05:13:58.506Z,5.38
2017-02-27T05:14:58.418Z,5.57
2017-02-27T05:15:59.487Z,5.83
2017-02-27T05:16:58.721Z,5.12
2017-02-27T05:17:57.304Z,6.10
2017-02-27T05:18:56.759Z,5.92
2017-02-27T05:19:57.111Z,5.90
2017-02-27T05:20:56.006Z,5.73
2017-02-27T05:21:55.024Z,6.52
2017-02-27T05:22:54.257Z,6.03
2017-02-27T05:23:56.720Z,6.60
2017-02-27T05:24:56.540Z,6.15
2017-02-27T05:25:57.036Z,6.42
2017-02-27T05:26:59.659Z,6.48
2017-02-27T05:28:02.604Z,6.48
2017-02-27T05:29:01.947Z,5.85
2017-02-27T05:30:04.178Z,5.98
2017-02-27T05:31:04.251Z,5.30
2017-02-27T05:32:07.889Z,6.60
2017-02-27T05:33:06.443Z,5.60
2017-02-27T05:34:05.362Z,5.52
2017-02-27T05:35:08.164Z,6.28
2017-02-27T05:36:11.063Z,5.30
2017-02-27T05:37:10.200Z,5.77
2017-02-27T05:38:11.343Z,6.10
2017-02-27T05:39:10.712Z,6.17
2017-02-27T05:40:12.350Z,6.50
2017-02-27T05:41:11.097Z,6.57
2017-02-27T05:42:11.198Z,5.57
2017-02-27T05:43:09.998Z,5.48
2017-02-27T05:44:08.648Z,6.18
2017-02-27T05:45:08.750Z,6.02
2017-02-27T05:46:07.629Z,5.37
2017-02-27T05:47:07.362Z,5.55
2017-02-27T05:48:06.642Z,5.28
2017-02-27T05:49:05.776Z,6.52
2017-02-27T05:50:05.473Z,6.07
2017-02-27T05:51:06.732Z,6.43
2017-02-27T05:52:06.290Z,6.13
2017-02-27T05:53:05.627Z,5.05
2017-02-27T05:54:05.371Z,5.88
2017-02-27T05:55:04.326Z,5.57
2017-02-27T05:56:03.116Z,5.93
2017-02-27T05:57:02.958Z,5.73
2017-02-27T05:58:03.768Z,5.82
2017-02-27T05:59:03.162Z,6.15
2017-02-27T06:00:04.185Z,5.62
2017-02-27T06:01:03.812Z,5.97
2017-02-27T06:02:02.623Z,5.53
2017-02-27T06:03:01.320Z,5.85
2017-02-27T06:04:00.004Z,5.32
2017-02-27T06:04:59.116Z,5.60
2017-02-27T06:05:59.067Z,6.02
2017-02-27T06:06:59.343Z,5.53
2017-02-27T06:08:02.083Z,5.78
2017-02-27T06:09:02.622Z,6.58
2017-02-27T06:10:01.295Z,5.37
2017-02-27T06:11:00.557Z,5.68
2017-02-27T06:12:00.398Z,6.00
2017-02-27T06:13:01.403Z,5.78
2017-02-27T06:14:00.983Z,5.57
2017-02-27T06:15:02.916Z,5.18
2017-02-27T06:16:05.396Z,5.93
2017-02-27T06:17:07.112Z,5.47
2017-02-27T06:18:09.955Z,5.57
2017-02-27T06:19:10.175Z,5.25
2017-02-27T06:20:08.849Z,5.42
2017-02-27T06:21:07.409Z,5.50
2017-02-27T06:22:06.011Z,5.03
2017-02-27T06:23:05.763Z,5.28
2017-02-27T06:24:07.236Z,5.43
2017-02-27T06:25:06.370Z,4.60
2017-02-27T06:26:05.881Z,5.57
2017-02-27T06:27:04.707Z,5.98
2017-02-27T06:28:03.986Z,5.30
2017-02-27T06:29:02.661Z,5.05
2017-02-27T06:30:01.647Z,4.83
2017-02-27T06:31:01.243Z,5.42
2017-02-27T06:32:01.902Z,4.90
2017-02-27T06:33:01.122Z,5.32
2017-02-27T06:34:03.549Z,5.27
2017-02-27T06:35:05.503Z,4.80
2017-02-27T06:36:06.418Z,5.83
2017-02-27T06:37:05.523Z,5.62
2017-02-27T06:38:04.264Z,4.92
2017-02-27T06:39:05.218Z,5.20
2017-02-27T06:40:07.509Z,5.28
2017-02-27T06:41:06.705Z,5.13
2017-02-27T06:42:05.227Z,5.17
2017-02-27T06:43:06.338Z,3.92
2017-02-27T06:44:05.560Z,5.83
2017-02-27T06:45:07.079Z,4.85
2017-02-27T06:46:06.747Z,4.88
2017-02-27T06:47:06.032Z,4.95
2017-02-27T06:48:07.114Z,4.55
2017-02-27T06:49:06.096Z,4.50
2017-02-27T06:50:09.626Z,4.18
2017-02-27T06:51:12.335Z,4.13
2017-02-27T06:52:11.194Z,5.30
2017-02-27T06:53:10.710Z,3.78
2017-02-27T06:54:10.418Z,3.88
2017-02-27T06:55:09.701Z,4.60
2017-02-27T06:56:08.485Z,4.10
2017-02-27T06:57:07.153Z,4.07
2017-02-27T06:58:06.722Z,4.73
2017-02-27T06:59:05.742Z,3.77
2017-02-27T07:00:05.679Z,3.78
2017-02-27T07:01:04.636Z,3.50
2017-02-27T07:02:04.330Z,3.50
2017-02-27T07:03:03.201Z,3.28
2017-02-27T07:04:04.394Z,4.23
2017-02-27T07:05:03.225Z,4.23
2017-02-27T07:06:03.629Z,4.37
2017-02-27T07:07:08.828Z,4.02
2017-02-27T07:08:08.434Z,3.92
2017-02-27T07:09:10.873Z,3.62
2017-02-27T07:10:10.263Z,3.95
2017-02-27T07:11:12.810Z,4.57
2017-02-27T07:12:13.135Z,3.97
2017-02-27T07:13:15.661Z,4.45
2017-02-27T07:14:15.304Z,4.05
2017-02-27T07:15:14.959Z,3.98
2017-02-27T07:16:13.669Z,3.98
2017-02-27T07:17:12.490Z,4.12
2017-02-27T07:18:12.274Z,4.30
2017-02-27T07:19:12.517Z,4.62
2017-02-27T07:20:12.986Z,4.13
2017-02-27T07:21:13.509Z,3.98
2017-02-27T07:22:13.198Z,4.27
2017-02-27T07:23:12.316Z,3.87
2017-02-27T07:24:11.296Z,3.80
2017-02-27T07:25:10.329Z,3.57
2017-02-27T07:26:11.311Z,3.67
2017-02-27T07:27:10.991Z,3.95
2017-02-27T07:28:10.599Z,4.60
2017-02-27T07:29:13.155Z,4.32
2017-02-27T07:30:12.823Z,3.73
2017-02-27T07:31:11.518Z,3.88
2017-02-27T07:32:10.246Z,4.63
2017-02-27T07:33:09.038Z,4.22
2017-02-27T07:34:08.992Z,3.83
2017-02-27T07:35:11.723Z,3.92
2017-02-27T07:36:12.262Z,3.80
2017-02-27T07:37:12.181Z,4.17
2017-02-27T07:38:12.193Z,3.78
2017-02-27T07:39:12.647Z,4.02
2017-02-27T07:40:16.751Z,3.90
2017-02-27T07:41:21.670Z,3.97
2017-02-27T07:42:24.521Z,4.03
2017-02-27T07:43:25.158Z,4.13
2017-02-27T07:44:26.316Z,4.17
2017-02-27T07:45:26.051Z,4.32
2017-02-27T07:46:24.679Z,4.08
2017-02-27T07:47:24.515Z,3.93
2017-02-27T07:48:25.945Z,3.97
2017-02-27T07:49:29.536Z,3.60
2017-02-27T07:50:28.637Z,4.13
2017-02-27T07:51:27.652Z,3.72
2017-02-27T07:52:33.054Z,3.67
2017-02-27T07:53:32.216Z,3.60
2017-02-27T07:54:31.844Z,3.93
2017-02-27T07:55:35.145Z,4.25
2017-02-27T07:56:36.681Z,3.78
2017-02-27T07:57:36.314Z,4.32
2017-02-27T07:58:35.188Z,4.30
2017-02-27T07:59:40.353Z,4.15
2017-02-27T08:00:39.420Z,4.47
2017-02-27T08:01:39.837Z,4.00
2017-02-27T08:02:43.153Z,4.05
2017-02-27T08:03:43.437Z,3.88
2017-02-27T08:04:42.783Z,3.55
2017-02-27T08:05:42.783Z,3.35
2017-02-27T08:06:43.874Z,3.62
2017-02-27T08:07:42.679Z,4.18
2017-02-27T08:08:49.182Z,3.93
2017-02-27T08:09:48.162Z,3.93
2017-02-27T08:10:47.259Z,3.35
2017-02-27T08:11:46.562Z,3.60
2017-02-27T08:12:46.724Z,3.65
2017-02-27T08:13:47.528Z,3.97
2017-02-27T08:14:47.092Z,4.20
2017-02-27T08:15:46.898Z,4.12
2017-02-27T08:16:48.561Z,3.52
2017-02-27T08:17:50.091Z,3.95
2017-02-27T08:18:48.901Z,4.72
2017-02-27T08:19:47.900Z,3.92
2017-02-27T08:20:46.491Z,3.40
2017-02-27T08:21:46.940Z,4.25
2017-02-27T08:22:48.692Z,4.88
2017-02-27T08:23:48.693Z,4.20
2017-02-27T08:24:47.924Z,4.22
2017-02-27T08:25:48.723Z,4.03
2017-02-27T08:26:47.889Z,4.40
2017-02-27T08:27:46.714Z,4.60
2017-02-27T08:28:46.131Z,5.17
2017-02-27T08:29:45.498Z,4.20
2017-02-27T08:30:45.925Z,3.55
2017-02-27T08:31:45.159Z,3.92
2017-02-27T08:32:44.082Z,4.68
2017-02-27T08:33:42.950Z,4.40
2017-02-27T08:34:42.498Z,4.30
2017-02-27T08:35:42.123Z,3.52
2017-02-27T08:36:41.091Z,3.77
2017-02-27T08:37:40.271Z,4.07
2017-02-27T08:38:38.927Z,3.70
2017-02-27T08:39:39.316Z,4.27
2017-02-27T08:40:40.062Z,4.62
2017-02-27T08:41:39.028Z,4.57
2017-02-27T08:42:39.167Z,3.92
2017-02-27T08:43:39.346Z,4.05
2017-02-27T08:44:38.688Z,4.20
2017-02-27T08:45:38.475Z,4.77
2017-02-27T08:46:38.194Z,4.43
2017-02-27T08:47:38.556Z,3.95
2017-02-27T08:48:37.204Z,4.12
2017-02-27T08:49:36.381Z,4.22
2017-02-27T08:50:37.272Z,4.33
2017-02-27T08:51:37.380Z,4.48
2017-02-27T08:52:37.211Z,3.97
2017-02-27T08:53:36.621Z,3.82
2017-02-27T08:54:35.398Z,3.23
2017-02-27T08:55:36.787Z,4.67
2017-02-27T08:56:37.111Z,4.43
2017-02-27T08:57:36.053Z,3.58
2017-02-27T08:58:35.568Z,4.13
2017-02-27T08:59:36.603Z,3.92
2017-02-27T09:00:36.145Z,3.60
2017-02-27T09:01:35.242Z,3.78
2017-02-27T09:02:37.326Z,3.30
2017-02-27T09:03:36.292Z,4.00
2017-02-27T09:04:36.474Z,4.47
2017-02-27T09:05:35.191Z,4.25
2017-02-27T09:06:34.178Z,4.20
2017-02-27T09:07:34.295Z,3.90
2017-02-27T09:08:35.080Z,3.58
2017-02-27T09:09:34.785Z,3.83
2017-02-27T09:10:35.109Z,3.45
2017-02-27T09:11:35.384Z,4.50
2017-02-27T09:12:34.956Z,3.47
2017-02-27T09:13:35.462Z,4.12
2017-02-27T09:14:34.014Z,3.92
2017-02-27T09:15:33.962Z,4.67
2017-02-27T09:16:33.260Z,3.58
2017-02-27T09:17:33.723Z,4.22
2017-02-27T09:18:35.187Z,4.15
2017-02-27T09:19:36.372Z,4.27
2017-02-27T09:20:37.270Z,3.82
2017-02-27T09:21:36.837Z,3.38
2017-02-27T09:22:39.467Z,3.30
2017-02-27T09:23:39.354Z,4.02
2017-02-27T09:24:38.069Z,3.42
2017-02-27T09:25:39.880Z,3.73
2017-02-27T09:26:39.458Z,3.93
2017-02-27T09:27:38.355Z,3.65
2017-02-27T09:28:37.003Z,4.23
2017-02-27T09:29:35.688Z,3.20
2017-02-27T09:30:35.482Z,3.47
2017-02-27T09:31:35.072Z,4.08
2017-02-27T09:32:36.343Z,3.75
2017-02-27T09:33:35.968Z,4.13
2017-02-27T09:34:36.855Z,3.22
2017-02-27T09:35:36.746Z,3.32
2017-02-27T09:36:35.857Z,4.00
2017-02-27T09:37:34.608Z,4.03
2017-02-27T09:38:34.406Z,3.55
2017-02-27T09:39:34.673Z,3.65
2017-02-27T09:40:37.215Z,3.15
2017-02-27T09:41:36.783Z,4.50
2017-02-27T09:42:36.248Z,3.48
2017-02-27T09:43:39.133Z,3.32
2017-02-27T09:44:39.807Z,3.72
2017-02-27T09:45:39.383Z,3.92
2017-02-27T09:46:38.589Z,4.33
2017-02-27T09:47:37.259Z,3.72
2017-02-27T09:48:36.976Z,3.90
2017-02-27T09:49:36.241Z,3.90
2017-02-27T09:50:35.133Z,3.65
2017-02-27T09:51:36.076Z,3.55
2017-02-27T09:52:37.103Z,3.58
2017-02-27T09:53:40.078Z,3.75
2017-02-27T09:54:39.143Z,4.15
2017-02-27T09:55:38.480Z,3.98
2017-02-27T09:56:37.396Z,3.95
2017-02-27T09:57:38.067Z,4.17
2017-02-27T09:58:40.799Z,3.60
2017-02-27T09:59:39.907Z,3.63
2017-02-27T10:00:41.968Z,3.88
2017-02-27T10:01:42.517Z,3.77
2017-02-27T10:02:41.512Z,3.98
2017-02-27T10:03:40.998Z,3.63
2017-02-27T10:04:41.028Z,3.73
2017-02-27T10:05:42.248Z,4.05
2017-02-27T10:06:44.773Z,3.40
2017-02-27T10:07:43.657Z,4.22
2017-02-27T10:08:47.717Z,3.93
2017-02-27T10:09:46.863Z,3.62
2017-02-27T10:10:45.669Z,3.50
2017-02-27T10:11:45.036Z,4.88
2017-02-27T10:12:45.387Z,3.50
2017-02-27T10:13:47.920Z,3.75
2017-02-27T10:14:47.267Z,4.25
2017-02-27T10:15:47.190Z,4.00
2017-02-27T10:16:51.251Z,3.52
2017-02-27T10:17:51.323Z,3.43
2017-02-27T10:18:52.163Z,3.37
2017-02-27T10:19:53.248Z,3.83
2017-02-27T10:20:53.695Z,4.13
2017-02-27T10:21:54.019Z,4.58
2017-02-27T10:22:53.126Z,4.37
2017-02-27T10:23:54.001Z,4.75
2017-02-27T10:24:57.985Z,5.15
2017-02-27T10:25:56.609Z,3.88
2017-02-27T10:27:00.006Z,3.58
2017-02-27T10:28:00.500Z,3.85
2017-02-27T10:29:02.193Z,3.80
2017-02-27T10:30:03.459Z,3.53
2017-02-27T10:31:03.894Z,3.73
2017-02-27T10:32:02.969Z,3.48
2017-02-27T10:33:01.560Z,3.90
2017-02-27T10:34:01.903Z,3.92
2017-02-27T10:35:00.990Z,3.55
2017-02-27T10:36:00.227Z,3.80
2017-02-27T10:36:59.424Z,4.02
2017-02-27T10:37:59.523Z,3.18
2017-02-27T10:38:59.086Z,3.38
2017-02-27T10:39:58.154Z,2.97
2017-02-27T10:40:57.226Z,3.15
2017-02-27T10:41:56.799Z,4.13
2017-02-27T10:42:55.663Z,3.63
2017-02-27T10:43:54.746Z,3.40
2017-02-27T10:44:54.247Z,2.70
2017-02-27T10:45:53.559Z,3.32
2017-02-27T10:46:56.668Z,2.93
2017-02-27T10:47:55.540Z,3.17
2017-02-27T10:48:54.579Z,2.83
2017-02-27T10:49:55.194Z,3.63
2017-02-27T10:50:56.217Z,3.17
2017-02-27T10:51:54.943Z,3.68
2017-02-27T10:52:54.674Z,3.98
2017-02-27T10:53:54.143Z,3.20
2017-02-27T10:54:53.508Z,3.17
2017-02-27T10:55:52.493Z,3.08
2017-02-27T10:56:51.291Z,3.27
2017-02-27T10:57:51.033Z,3.63
2017-02-27T10:58:51.242Z,3.92
2017-02-27T10:59:51.063Z,3.27
2017-02-27T11:00:52.524Z,4.08
2017-02-27T11:01:53.926Z,3.12
2017-02-27T11:02:56.393Z,3.75
2017-02-27T11:03:57.813Z,3.38
2017-02-27T11:04:56.503Z,2.98
2017-02-27T11:05:55.259Z,2.58
2017-02-27T11:06:57.098Z,3.07
2017-02-27T11:07:56.544Z,2.82
2017-02-27T11:08:57.466Z,3.32
2017-02-27T11:09:56.675Z,2.65
2017-02-27T11:10:57.489Z,2.58
2017-02-27T11:11:57.291Z,2.73
2017-02-27T11:12:56.422Z,2.60
2017-02-27T11:13:55.251Z,3.57
2017-02-27T11:14:54.120Z,2.08
2017-02-27T11:15:53.142Z,2.58
2017-02-27T11:16:51.863Z,2.30
2017-02-27T11:17:51.528Z,3.05
2017-02-27T11:18:50.666Z,2.62
2017-02-27T11:19:50.474Z,2.40
2017-02-27T11:20:54.975Z,1.85
2017-02-27T11:21:54.779Z,2.20
2017-02-27T11:22:56.415Z,2.37
2017-02-27T11:23:55.157Z,2.75
2017-02-27T11:24:55.873Z,2.20
2017-02-27T11:25:54.951Z,2.70
2017-02-27T11:26:58.376Z,2.88
2017-02-27T11:27:58.671Z,2.03
2017-02-27T11:28:58.212Z,2.70
2017-02-27T11:29:58.166Z,1.90
2017-02-27T11:30:57.734Z,2.08
2017-02-27T11:31:59.443Z,2.35
2017-02-27T11:33:00.699Z,2.35
2017-02-27T11:33:59.616Z,2.33
2017-02-27T11:34:58.610Z,2.53
2017-02-27T11:35:58.875Z,2.60
2017-02-27T11:36:58.688Z,2.77
2017-02-27T11:37:58.142Z,2.93
2017-02-27T11:38:58.090Z,2.13
2017-02-27T11:39:57.378Z,2.52
2017-02-27T11:40:59.730Z,2.73
2017-02-27T11:42:00.303Z,2.53
2017-02-27T11:42:59.970Z,2.47
2017-02-27T11:44:00.222Z,4.47
2017-02-27T11:44:59.164Z,2.38
2017-02-27T11:45:57.961Z,2.60
2017-02-27T12:19:47.384Z,2.32
2017-02-27T12:20:46.058Z,2.10
2017-02-27T12:21:45.629Z,2.72
2017-02-27T12:22:44.397Z,2.13
2017-02-27T12:23:44.116Z,2.05
2017-02-27T12:24:43.725Z,2.30
2017-02-27T12:25:42.746Z,1.85
2017-02-27T12:26:42.376Z,2.93
2017-02-27T12:27:41.535Z,2.72
2017-02-27T12:28:40.991Z,2.72
2017-02-27T12:29:41.576Z,2.88
2017-02-27T12:30:40.577Z,1.95
2017-02-27T12:31:41.813Z,2.52
2017-02-27T12:32:41.189Z,2.75
2017-02-27T12:33:40.105Z,1.90
2017-02-27T12:34:45.312Z,2.02
2017-02-27T12:35:45.211Z,2.25
2017-02-27T12:36:45.220Z,2.12
2017-02-27T12:37:43.959Z,2.10
2017-02-27T12:38:43.491Z,2.65
2017-02-27T12:39:42.601Z,2.70
2017-02-27T12:40:41.520Z,2.38
2017-02-27T12:41:40.512Z,2.68
2017-02-27T12:42:41.290Z,2.32
2017-02-27T12:43:39.971Z,1.97
2017-02-27T12:44:38.688Z,2.27
2017-02-27T12:45:37.371Z,2.32
2017-02-27T12:46:36.906Z,2.48
2017-02-27T12:47:37.066Z,2.82
2017-02-27T12:48:37.099Z,2.68
2017-02-27T12:49:38.239Z,2.17
2017-02-27T12:50:37.295Z,2.00
2017-02-27T12:51:39.452Z,2.43
2017-02-27T12:52:38.529Z,2.23
2017-02-27T12:53:38.812Z,3.13
2017-02-27T12:54:37.496Z,2.43
2017-02-27T12:55:37.940Z,2.03
2017-02-27T12:56:40.445Z,2.15
2017-02-27T12:57:39.227Z,1.92
2017-02-27T12:58:38.221Z,2.20
2017-02-27T12:59:37.213Z,1.75
2017-02-27T13:00:38.651Z,1.95
2017-02-27T13:01:37.687Z,1.78
2017-02-27T13:02:36.775Z,2.00
2017-02-27T13:03:36.656Z,1.88
2017-02-27T13:04:37.395Z,1.83
2017-02-27T13:05:38.731Z,2.00
2017-02-27T13:06:37.668Z,1.95
2017-02-27T13:07:37.351Z,1.98
2017-02-27T13:08:39.455Z,1.58
2017-02-27T13:09:44.671Z,1.43
2017-02-27T13:10:44.316Z,1.80
2017-02-27T13:11:46.107Z,1.83
2017-02-27T13:12:47.344Z,1.62
2017-02-27T13:13:45.952Z,1.93
2017-02-27T13:14:47.892Z,1.92
2017-02-27T13:15:48.675Z,1.78
2017-02-27T13:16:49.707Z,1.72
2017-02-27T13:17:49.793Z,1.83
2017-02-27T13:18:48.406Z,1.78
2017-02-27T13:19:47.427Z,1.95
2017-02-27T13:20:47.864Z,2.57
2017-02-27T13:21:47.605Z,2.00
2017-02-27T13:22:49.646Z,1.72
2017-02-27T13:23:48.243Z,2.73
2017-02-27T13:24:47.543Z,2.12
2017-02-27T13:25:46.395Z,2.25
2017-02-27T13:26:45.809Z,2.17
2017-02-27T13:27:45.284Z,2.32
2017-02-27T13:28:44.128Z,2.37
2017-02-27T13:29:42.971Z,2.22
2017-02-27T13:30:43.653Z,2.40
2017-02-27T13:31:42.183Z,2.15
2017-02-27T13:32:44.066Z,2.02
2017-02-27T13:33:45.559Z,1.92
2017-02-27T13:34:49.266Z,2.35
2017-02-27T13:35:48.399Z,2.35
2017-02-27T13:36:46.987Z,2.00
2017-02-27T13:37:45.683Z,2.23
2017-02-27T13:38:44.973Z,2.20
2017-02-27T13:39:43.780Z,1.97
2017-02-27T13:40:43.898Z,2.05
2017-02-27T13:41:44.722Z,2.27
2017-02-27T13:42:44.091Z,2.58
2017-02-27T13:43:45.153Z,2.37
2017-02-27T13:44:44.419Z,2.58
2017-02-27T13:45:43.417Z,2.20
2017-02-27T13:46:42.672Z,2.53
2017-02-27T13:47:42.497Z,2.55
2017-02-27T13:48:41.559Z,2.30
2017-02-27T13:49:41.268Z,2.07
2017-02-27T13:50:40.779Z,2.55
2017-02-27T13:51:40.945Z,2.20
2017-02-27T13:52:39.946Z,2.28
2017-02-27T13:53:40.299Z,2.35
2017-02-27T13:54:39.559Z,2.32
2017-02-27T13:55:39.666Z,2.33
2017-02-27T13:56:38.921Z,1.90
2017-02-27T13:57:38.444Z,2.02
2017-02-27T13:58:37.062Z,2.35
2017-02-27T13:59:36.059Z,1.90
2017-02-27T14:00:35.012Z,1.68
2017-02-27T14:01:33.762Z,3.13
2017-02-27T14:02:32.940Z,2.52
2017-02-27T14:03:31.854Z,2.00